This is the latest recevied weather packets stored in our database for station/object Ummendorf. If no packets are shown the sender has not sent any weather packets the latest 10 day(s).
| Time | Temp. | Humidity | Pressure | Rain* | Wind** | Luminosity | Snow |
|---|---|---|---|---|---|---|---|
| 1777782731 | 6.67° C | 60% | 1016.3 hPa | 0 mm | - | - | - |
| 1777780930 | 6.67° C | 60% | 1016.2 hPa | 0 mm | - | - | - |
| 1777779131 | 6.67° C | 59% | 1016.2 hPa | 0 mm | - | - | - |
| 1777777331 | 7.22° C | 59% | 1016.1 hPa | 0 mm | - | - | - |
| 1777775531 | 7.78° C | 58% | 1016.4 hPa | 0 mm | - | - | - |
| 1777773731 | 7.78° C | 57% | 1016.5 hPa | 0 mm | - | - | - |
| 1777771932 | 8.33° C | 57% | 1016.6 hPa | 0 mm | - | - | - |
| 1777770132 | 8.33° C | 56% | 1016.8 hPa | 0 mm | - | - | - |
| 1777768329 | 8.89° C | 56% | 1016.8 hPa | 0 mm | - | - | - |
| 1777766530 | 8.89° C | 55% | 1017 hPa | 0 mm | - | - | - |
| 1777764730 | 10° C | 54% | 1016.9 hPa | 0 mm | - | - | - |
| 1777762930 | 10.56° C | 52% | 1017.2 hPa | 0 mm | - | - | - |
| 1777761131 | 11.11° C | 51% | 1017.2 hPa | 0 mm | - | - | - |
| 1777757530 | 12.22° C | 50% | 1017.4 hPa | 0 mm | - | - | - |
| 1777755729 | 13.33° C | 48% | 1017.3 hPa | 0 mm | - | - | - |
| 1777753930 | 13.89° C | 47% | 1017.6 hPa | 0 mm | - | - | - |
| 1777752130 | 14.44° C | 45% | 1017.7 hPa | 0 mm | - | - | - |
| 1777750335 | 16.11° C | 42% | 1017.7 hPa | 0 mm | - | - | - |
| 1777748537 | 17.78° C | 40% | 1017.4 hPa | 0 mm | - | - | - |
| 1777746730 | 20.56° C | 32% | 1017.4 hPa | 0 mm | - | - | - |
| 1777744931 | 22.78° C | 24% | 1017.2 hPa | 0 mm | - | - | - |
| 1777743130 | 24.44° C | 20% | 1017.3 hPa | 0 mm | - | - | - |
| 1777741330 | 25° C | 17% | 1017.4 hPa | 0 mm | - | - | - |
| 1777739530 | 25.56° C | 17% | 1017.5 hPa | 0 mm | - | - | - |
| 1777737733 | 25° C | 17% | 1018.1 hPa | 0 mm | - | - | - |
* Rain since midnight (hover to see other rain measurements)
** Current wind speed in m/s (hover to see current wind gust speed)